Salvage, Canada
Current Conditions -  °F | °C
As of 10:00 AM on Wednesday 22 Oct 2014 (Local Time) from CYQX Reporting Station
Scattered Clouds Scattered Clouds  
Wind Chill: 37°   Ceiling: Unl
Heat Index: 41°   Visibility: 20mi
Dew Point: 37°   Wind: 6mph
Humidity: 87%   Direction: 310°NW
Pressure: 30.42"   Gusts: NA
Location:  48.67°N, 53.65°W
Report Text: CYQX 221200Z 31005KT 20SM FEW012 FEW080 SCT250 05/03 A3042 RMK CF1AC1CI2 SC TR SLP308
Loading
Personal Weather Stations






























Interactive Weather Map
Tropical Storm Tracking
New forecast layout! Learn more

10-Day Weather Forecast

Advertisements
Track Severe Weather on mobile